createdAt,value
2018-10-11T00:00:04.869Z,7.40
2018-10-11T00:02:31.707Z,7.93
2018-10-11T00:04:58.459Z,8.03
2018-10-11T00:07:25.322Z,7.93
2018-10-11T00:09:52.417Z,7.80
2018-10-11T00:12:19.388Z,8.13
2018-10-11T00:14:46.251Z,8.47
2018-10-11T00:17:13.048Z,7.83
2018-10-11T00:19:40.212Z,8.27
2018-10-11T00:22:07.155Z,8.63
2018-10-11T00:24:34.079Z,8.20
2018-10-11T00:27:00.969Z,8.40
2018-10-11T00:29:27.829Z,7.67
2018-10-11T00:31:54.843Z,7.90
2018-10-11T00:34:21.669Z,8.23
2018-10-11T00:36:49.047Z,8.03
2018-10-11T00:39:15.938Z,8.07
2018-10-11T00:41:42.794Z,8.60
2018-10-11T00:44:10.279Z,8.50
2018-10-11T00:46:37.178Z,7.73
2018-10-11T00:49:03.979Z,8.63
2018-10-11T00:51:30.721Z,7.87
2018-10-11T00:53:57.600Z,7.70
2018-10-11T00:56:24.584Z,7.07
2018-10-11T00:58:51.415Z,7.90
2018-10-11T01:01:18.328Z,7.90
2018-10-11T01:03:45.058Z,8.87
2018-10-11T01:06:11.788Z,8.03
2018-10-11T01:08:38.598Z,7.60
2018-10-11T01:11:05.316Z,8.30
2018-10-11T01:13:32.015Z,8.17
2018-10-11T01:15:58.884Z,8.07
2018-10-11T01:18:25.720Z,8.63
2018-10-11T01:20:52.515Z,8.03
2018-10-11T01:23:19.324Z,7.37
2018-10-11T01:25:46.093Z,8.00
2018-10-11T01:28:12.911Z,8.80
2018-10-11T01:30:44.200Z,8.93
2018-10-11T01:33:11.062Z,9.30
2018-10-11T01:35:37.912Z,8.90
2018-10-11T01:38:04.674Z,9.70
2018-10-11T01:40:31.559Z,8.67
2018-10-11T01:42:58.311Z,9.23
2018-10-11T01:45:25.118Z,7.83
2018-10-11T01:47:51.906Z,8.67
2018-10-11T01:50:18.712Z,8.70
2018-10-11T01:52:45.486Z,8.53
2018-10-11T01:55:12.567Z,9.00
2018-10-11T01:57:39.577Z,8.83
2018-10-11T02:00:06.575Z,8.83
2018-10-11T02:02:33.390Z,9.10
2018-10-11T02:05:00.360Z,8.60
2018-10-11T02:07:27.181Z,8.73
2018-10-11T02:09:54.043Z,8.10
2018-10-11T02:12:20.957Z,8.43
2018-10-11T02:14:47.785Z,8.07
2018-10-11T02:17:14.636Z,9.17
2018-10-11T02:19:41.588Z,8.57
2018-10-11T02:22:08.345Z,8.37
2018-10-11T02:24:35.119Z,8.53
2018-10-11T02:27:01.881Z,8.57
2018-10-11T02:29:28.579Z,8.70
2018-10-11T02:31:55.415Z,9.17
2018-10-11T02:34:22.317Z,8.60
2018-10-11T02:36:49.089Z,8.00
2018-10-11T02:39:16.199Z,8.30
2018-10-11T02:41:43.101Z,8.07
2018-10-11T02:44:10.035Z,7.87
2018-10-11T02:46:36.927Z,9.57
2018-10-11T02:49:03.975Z,7.90
2018-10-11T02:51:30.718Z,7.57
2018-10-11T02:53:57.708Z,8.60
2018-10-11T02:56:24.593Z,7.73
2018-10-11T02:58:51.460Z,8.07
2018-10-11T03:01:18.385Z,9.23
2018-10-11T03:03:45.187Z,8.90
2018-10-11T03:06:11.961Z,8.60
2018-10-11T03:08:38.814Z,8.83
2018-10-11T03:11:05.673Z,7.50
2018-10-11T03:13:32.458Z,8.30
2018-10-11T03:15:59.594Z,7.93
2018-10-11T03:18:26.361Z,9.10
2018-10-11T03:20:53.204Z,9.03
2018-10-11T03:23:19.918Z,7.50
2018-10-11T03:25:46.692Z,7.83
2018-10-11T03:28:14.798Z,8.07
2018-10-11T03:30:41.957Z,7.97
2018-10-11T03:33:08.868Z,7.63
2018-10-11T03:35:35.777Z,7.80
2018-10-11T03:38:02.569Z,8.10
2018-10-11T03:40:29.348Z,7.80
2018-10-11T03:42:56.564Z,7.63
2018-10-11T03:45:23.392Z,8.27
2018-10-11T03:47:50.278Z,7.57
2018-10-11T03:50:17.020Z,8.03
2018-10-11T03:52:43.770Z,7.43
2018-10-11T03:55:10.674Z,7.90
2018-10-11T03:57:37.490Z,7.67
2018-10-11T04:00:04.334Z,7.63
2018-10-11T04:02:31.102Z,7.33
2018-10-11T04:04:57.961Z,7.30
2018-10-11T04:07:25.128Z,8.23
2018-10-11T04:09:51.986Z,7.47
2018-10-11T04:12:18.936Z,7.53
2018-10-11T04:14:45.849Z,7.20
2018-10-11T04:17:12.631Z,7.63
2018-10-11T04:19:39.433Z,7.67
2018-10-11T04:22:06.476Z,7.50
2018-10-11T04:24:33.325Z,7.13
2018-10-11T04:27:00.038Z,7.23
2018-10-11T04:29:26.825Z,6.43
2018-10-11T04:31:53.583Z,7.60
2018-10-11T04:34:20.603Z,6.60
2018-10-11T04:36:47.497Z,7.27
2018-10-11T04:39:14.217Z,6.67
2018-10-11T04:41:46.119Z,6.87
2018-10-11T04:44:12.825Z,7.40
2018-10-11T04:46:39.887Z,6.93
2018-10-11T04:49:06.627Z,7.10
2018-10-11T04:51:33.395Z,6.47
2018-10-11T04:54:00.196Z,6.67
2018-10-11T04:56:28.130Z,6.60
2018-10-11T04:58:55.222Z,6.83
2018-10-11T05:01:22.221Z,6.70
2018-10-11T05:03:49.071Z,6.17
2018-10-11T05:06:15.830Z,6.53
2018-10-11T05:08:42.644Z,6.80
2018-10-11T05:11:09.524Z,6.73
2018-10-11T05:13:36.404Z,5.70
2018-10-11T05:16:03.177Z,5.63
2018-10-11T05:18:30.005Z,5.83
2018-10-11T05:20:56.746Z,5.77
2018-10-11T05:23:23.647Z,5.47
2018-10-11T05:25:50.420Z,5.30
2018-10-11T05:28:17.356Z,5.43
2018-10-11T05:30:45.353Z,5.20
2018-10-11T05:33:12.404Z,4.60
2018-10-11T05:35:39.297Z,4.37
2018-10-11T05:38:06.034Z,4.43
2018-10-11T05:40:33.440Z,3.70
2018-10-11T05:43:00.166Z,4.27
2018-10-11T05:45:27.384Z,4.30
2018-10-11T05:47:54.354Z,4.03
2018-10-11T05:50:21.231Z,3.90
2018-10-11T05:52:48.013Z,3.97
2018-10-11T05:55:15.062Z,4.13
2018-10-11T05:57:42.957Z,3.33
2018-10-11T06:00:10.401Z,3.30
2018-10-11T06:02:37.272Z,3.47
2018-10-11T06:05:04.277Z,2.77
2018-10-11T06:07:31.188Z,2.70
2018-10-11T06:09:58.097Z,2.67
2018-10-11T06:12:25.313Z,3.00
2018-10-11T06:14:52.913Z,3.23
2018-10-11T06:17:20.215Z,2.43
2018-10-11T06:19:47.728Z,2.73
2018-10-11T06:22:14.540Z,2.73
2018-10-11T06:24:41.542Z,2.60
2018-10-11T06:27:09.243Z,2.13
2018-10-11T06:29:36.135Z,2.17
2018-10-11T06:32:02.901Z,2.30
2018-10-11T06:34:29.736Z,2.27
2018-10-11T06:36:56.850Z,2.00
2018-10-11T06:39:23.925Z,2.23
2018-10-11T06:41:51.005Z,2.13
2018-10-11T06:44:17.807Z,2.50
2018-10-11T06:46:44.669Z,2.10
2018-10-11T06:49:11.652Z,1.90
2018-10-11T06:51:38.500Z,1.90
2018-10-11T06:54:05.231Z,1.70
2018-10-11T06:56:31.999Z,1.70
2018-10-11T06:58:59.251Z,1.93
2018-10-11T07:01:26.083Z,1.93
2018-10-11T07:03:52.853Z,1.50
2018-10-11T07:06:19.643Z,2.17
2018-10-11T07:08:46.507Z,1.80
2018-10-11T07:11:13.365Z,2.10
2018-10-11T07:13:40.144Z,2.03
2018-10-11T07:16:06.941Z,2.00
2018-10-11T07:18:33.652Z,1.70
2018-10-11T07:21:00.497Z,1.63
2018-10-11T07:23:27.291Z,2.00
2018-10-11T07:25:54.141Z,1.60
2018-10-11T07:28:21.104Z,1.67
2018-10-11T07:30:48.343Z,2.00
2018-10-11T07:33:15.132Z,1.60
2018-10-11T07:35:41.925Z,1.77
2018-10-11T07:38:08.645Z,1.67
2018-10-11T07:40:35.545Z,1.80
2018-10-11T07:43:02.258Z,1.83
2018-10-11T07:45:28.967Z,1.50
2018-10-11T07:47:55.767Z,1.57
2018-10-11T07:50:22.769Z,1.90
2018-10-11T07:52:49.577Z,1.60
2018-10-11T07:55:16.278Z,1.40
2018-10-11T07:57:43.080Z,1.40
2018-10-11T08:00:11.565Z,1.60
2018-10-11T08:02:38.432Z,1.60
2018-10-11T08:05:05.482Z,1.30
2018-10-11T08:07:32.517Z,1.70
2018-10-11T08:09:59.217Z,1.67
2018-10-11T08:12:26.080Z,1.23
2018-10-11T08:14:52.943Z,1.60
2018-10-11T08:17:20.063Z,1.70
2018-10-11T08:19:46.908Z,1.37
2018-10-11T08:22:13.608Z,1.50
2018-10-11T08:24:40.494Z,1.50
2018-10-11T08:27:07.243Z,1.20
2018-10-11T08:29:34.041Z,1.47
2018-10-11T08:32:00.780Z,1.20
2018-10-11T08:34:27.594Z,1.07
2018-10-11T08:36:54.377Z,1.40
2018-10-11T08:39:21.612Z,1.37
2018-10-11T08:41:48.655Z,1.30
2018-10-11T08:44:15.545Z,1.00
2018-10-11T08:46:42.345Z,1.20
2018-10-11T08:49:09.145Z,1.27
2018-10-11T08:51:35.892Z,1.43
2018-10-11T08:54:08.273Z,1.33
2018-10-11T08:56:35.202Z,1.23
2018-10-11T08:59:02.008Z,1.20
2018-10-11T09:01:28.732Z,1.20
2018-10-11T09:03:55.768Z,1.43
2018-10-11T09:06:22.719Z,1.03
2018-10-11T09:08:49.736Z,0.87
2018-10-11T09:11:16.631Z,0.90
2018-10-11T09:13:43.380Z,1.00
2018-10-11T09:16:10.098Z,1.13
2018-10-11T09:18:37.256Z,1.10
2018-10-11T09:21:04.114Z,1.07
2018-10-11T09:23:31.004Z,0.90
2018-10-11T09:25:57.706Z,1.00
2018-10-11T09:28:24.808Z,0.80
2018-10-11T09:30:51.524Z,1.07
2018-10-11T09:33:18.259Z,1.00
2018-10-11T09:35:45.082Z,0.90
2018-10-11T09:38:12.096Z,1.00
2018-10-11T09:40:38.916Z,0.63
2018-10-11T09:43:05.857Z,1.00
2018-10-11T09:45:32.643Z,0.80
2018-10-11T09:47:59.451Z,0.90
2018-10-11T09:50:26.616Z,0.90
2018-10-11T09:52:53.407Z,0.90
2018-10-11T09:55:20.160Z,0.70
2018-10-11T09:57:46.905Z,0.97
2018-10-11T10:00:19.566Z,0.90
2018-10-11T10:02:47.507Z,1.03
2018-10-11T10:05:14.320Z,0.80
2018-10-11T10:07:41.578Z,1.03
2018-10-11T10:10:08.667Z,0.90
2018-10-11T10:12:35.774Z,0.90
2018-10-11T10:15:02.685Z,0.87
2018-10-11T10:17:29.399Z,0.90
2018-10-11T10:19:56.378Z,0.90
2018-10-11T10:22:23.121Z,1.03
2018-10-11T10:24:49.940Z,1.00
2018-10-11T10:27:16.824Z,0.90
2018-10-11T10:29:43.687Z,0.57
2018-10-11T10:32:10.447Z,0.90
2018-10-11T10:34:37.171Z,0.83
2018-10-11T10:37:03.964Z,0.80
2018-10-11T10:39:30.757Z,0.97
2018-10-11T10:41:57.748Z,1.00
2018-10-11T10:44:24.484Z,0.90
2018-10-11T10:46:51.285Z,1.03
2018-10-11T10:49:18.458Z,0.90
2018-10-11T10:51:45.294Z,0.80
2018-10-11T10:54:17.730Z,0.83
2018-10-11T10:56:44.695Z,0.80
2018-10-11T10:59:11.402Z,0.87
2018-10-11T11:01:38.246Z,0.97
2018-10-11T11:04:05.116Z,0.90
2018-10-11T11:06:31.838Z,0.77
2018-10-11T11:08:58.521Z,0.70
2018-10-11T11:11:25.522Z,0.80
2018-10-11T11:13:52.565Z,0.90
2018-10-11T11:16:19.321Z,0.70
2018-10-11T11:18:46.309Z,0.97
2018-10-11T11:21:13.186Z,0.77
2018-10-11T11:23:40.172Z,0.80
2018-10-11T11:26:07.290Z,0.83
2018-10-11T11:28:34.174Z,0.80
2018-10-11T11:31:00.856Z,1.20
2018-10-11T11:33:27.660Z,0.77
2018-10-11T11:35:54.444Z,0.90
2018-10-11T11:38:21.244Z,1.03
2018-10-11T11:40:48.020Z,0.73
2018-10-11T11:43:14.790Z,0.80
2018-10-11T11:45:41.704Z,0.70
2018-10-11T11:48:08.293Z,0.90
2018-10-11T11:50:35.204Z,0.60
2018-10-11T11:53:02.004Z,0.63
2018-10-11T11:55:28.800Z,0.73
2018-10-11T11:57:55.835Z,0.90
2018-10-11T12:00:25.818Z,0.50
2018-10-11T12:02:52.705Z,0.60
2018-10-11T12:05:19.411Z,0.87
2018-10-11T12:07:46.162Z,0.63
2018-10-11T12:10:12.857Z,0.63
2018-10-11T12:12:39.721Z,1.00
2018-10-11T12:15:06.437Z,0.70
2018-10-11T12:17:33.275Z,0.70
2018-10-11T12:20:00.157Z,0.53
2018-10-11T12:22:26.941Z,0.90
2018-10-11T12:24:53.640Z,0.70
2018-10-11T12:27:20.356Z,0.70
2018-10-11T12:29:47.180Z,0.50
2018-10-11T12:32:14.449Z,0.80
2018-10-11T12:34:41.191Z,0.60
2018-10-11T12:37:07.863Z,0.80
2018-10-11T12:39:34.723Z,0.60
2018-10-11T12:42:01.591Z,0.80
2018-10-11T12:44:28.611Z,0.70
2018-10-11T12:46:55.534Z,0.70
2018-10-11T12:49:22.452Z,1.17
2018-10-11T12:51:49.266Z,0.70
2018-10-11T12:54:16.009Z,0.80
2018-10-11T12:56:43.079Z,0.47
2018-10-11T12:59:09.952Z,1.00
2018-10-11T13:01:36.673Z,0.60
2018-10-11T13:04:03.390Z,0.57
2018-10-11T13:06:30.196Z,0.83
2018-10-11T13:08:57.125Z,0.90
2018-10-11T13:11:23.960Z,0.63
2018-10-11T13:13:52.819Z,0.83
2018-10-11T13:16:17.675Z,0.80
2018-10-11T13:18:44.655Z,0.77
2018-10-11T13:21:11.454Z,0.67
2018-10-11T13:23:38.440Z,0.70
2018-10-11T13:26:05.304Z,0.60
2018-10-11T13:28:32.044Z,0.80
2018-10-11T13:30:58.929Z,0.60
2018-10-11T13:33:25.752Z,0.70
2018-10-11T13:35:52.528Z,1.00
2018-10-11T13:38:19.275Z,0.60
2018-10-11T13:40:46.119Z,0.83
2018-10-11T13:43:12.838Z,0.77
2018-10-11T13:45:39.712Z,0.70
2018-10-11T13:48:06.514Z,0.80
2018-10-11T13:50:33.255Z,0.83
2018-10-11T13:53:00.059Z,0.90
2018-10-11T13:55:26.942Z,0.77
2018-10-11T13:57:53.731Z,0.83
2018-10-11T14:00:20.636Z,0.80
2018-10-11T14:02:47.428Z,0.77
2018-10-11T14:05:14.229Z,0.80
2018-10-11T14:07:40.977Z,1.00
2018-10-11T14:10:08.038Z,0.90
2018-10-11T14:12:34.855Z,0.80
2018-10-11T14:15:02.285Z,0.70
2018-10-11T14:17:29.052Z,0.80
2018-10-11T14:19:55.833Z,1.00
2018-10-11T14:22:23.103Z,0.90
2018-10-11T14:24:49.875Z,0.90
2018-10-11T14:29:47.172Z,0.63
2018-10-11T14:32:14.005Z,0.87
2018-10-11T14:34:40.945Z,0.90
2018-10-11T14:37:07.973Z,0.93
2018-10-11T14:39:34.691Z,0.90
2018-10-11T14:42:01.597Z,1.27
2018-10-11T14:44:28.432Z,0.90
2018-10-11T14:46:55.471Z,1.33
2018-10-11T14:49:22.319Z,1.03
2018-10-11T14:51:49.212Z,0.97
2018-10-11T14:54:16.133Z,1.10
2018-10-11T14:56:43.070Z,1.10
2018-10-11T14:59:09.886Z,1.00
2018-10-11T15:01:36.964Z,1.20
2018-10-11T15:04:03.801Z,1.17
2018-10-11T15:06:30.613Z,0.97
2018-10-11T15:08:57.443Z,1.00
2018-10-11T15:11:24.385Z,1.00
2018-10-11T15:13:51.236Z,0.90
2018-10-11T15:16:18.119Z,1.00
2018-10-11T15:18:44.982Z,1.10
2018-10-11T15:21:11.809Z,1.10
2018-10-11T15:23:38.677Z,0.80
2018-10-11T15:26:05.577Z,0.97
2018-10-11T15:28:32.410Z,1.40
2018-10-11T15:30:59.463Z,1.40
2018-10-11T15:33:26.297Z,1.20
2018-10-11T15:35:53.146Z,1.17
2018-10-11T15:38:20.216Z,1.10
2018-10-11T15:40:47.185Z,1.00
2018-10-11T15:43:13.966Z,1.10
2018-10-11T15:45:40.739Z,1.50
2018-10-11T15:48:07.525Z,1.30
2018-10-11T15:50:34.465Z,1.23
2018-10-11T15:53:01.285Z,1.00
2018-10-11T15:55:28.100Z,1.20
2018-10-11T15:57:54.926Z,1.03
2018-10-11T16:00:21.753Z,1.30
2018-10-11T16:02:48.535Z,1.30
2018-10-11T16:05:15.324Z,0.97
2018-10-11T16:07:42.309Z,1.27
2018-10-11T16:10:09.267Z,1.13
2018-10-11T16:12:36.224Z,1.10
2018-10-11T16:15:03.027Z,0.90
2018-10-11T16:17:29.814Z,1.00
2018-10-11T16:19:56.632Z,0.90
2018-10-11T16:22:23.516Z,1.30
2018-10-11T16:24:50.601Z,1.30
2018-10-11T16:27:17.276Z,1.40
2018-10-11T16:29:44.028Z,0.90
2018-10-11T16:32:10.943Z,0.97
2018-10-11T16:34:37.668Z,1.20
2018-10-11T16:37:04.460Z,1.00
2018-10-11T16:39:31.406Z,1.47
2018-10-11T16:41:58.228Z,1.10
2018-10-11T16:44:25.052Z,1.20
2018-10-11T16:46:52.108Z,1.37
2018-10-11T16:49:18.907Z,0.90
2018-10-11T16:51:45.849Z,1.50
2018-10-11T16:54:12.747Z,1.10
2018-10-11T16:56:39.574Z,1.33
2018-10-11T16:59:06.418Z,1.13
2018-10-11T17:04:01.199Z,1.20
2018-10-11T17:06:28.066Z,1.10
2018-10-11T17:08:54.952Z,0.90
2018-10-11T17:11:21.865Z,1.30
2018-10-11T17:13:48.660Z,1.10
2018-10-11T17:16:15.666Z,1.00
2018-10-11T17:18:42.464Z,1.17
2018-10-11T17:21:09.415Z,1.20
2018-10-11T17:23:36.227Z,1.17
2018-10-11T17:26:03.091Z,1.00
2018-10-11T17:28:30.196Z,1.40
2018-10-11T17:30:56.920Z,1.10
2018-10-11T17:33:23.677Z,1.20
2018-10-11T17:35:51.069Z,1.30
2018-10-11T17:38:17.899Z,1.10
2018-10-11T17:40:44.970Z,1.20
2018-10-11T17:43:12.002Z,1.00
2018-10-11T17:45:38.946Z,1.17
2018-10-11T17:48:05.777Z,0.80
2018-10-11T17:50:32.761Z,1.20
2018-10-11T17:52:59.584Z,1.20
2018-10-11T17:55:26.404Z,1.10
2018-10-11T17:57:53.214Z,1.00
2018-10-11T18:00:20.043Z,0.97
2018-10-11T18:02:46.917Z,1.60
2018-10-11T18:05:13.958Z,1.10
2018-10-11T18:07:40.839Z,1.10
2018-10-11T18:10:07.712Z,1.10
2018-10-11T18:12:34.386Z,1.43
2018-10-11T18:15:01.126Z,0.87
2018-10-11T18:17:27.887Z,1.10
2018-10-11T18:19:54.570Z,1.00
2018-10-11T18:22:21.281Z,1.10
2018-10-11T18:24:48.126Z,0.90
2018-10-11T18:27:15.151Z,1.00
2018-10-11T18:29:41.890Z,1.13
2018-10-11T18:32:08.665Z,1.10
2018-10-11T18:34:35.400Z,1.00
2018-10-11T18:37:02.095Z,1.10
2018-10-11T18:39:28.867Z,1.30
2018-10-11T18:41:55.609Z,1.10
2018-10-11T18:44:22.396Z,1.00
2018-10-11T18:46:49.280Z,1.40
2018-10-11T18:49:16.035Z,1.43
2018-10-11T18:51:42.794Z,1.20
2018-10-11T18:54:09.684Z,1.47
2018-10-11T18:56:36.764Z,1.30
2018-10-11T18:59:03.495Z,1.00
2018-10-11T19:01:30.356Z,1.10
2018-10-11T19:03:57.234Z,1.47
2018-10-11T19:06:24.083Z,1.10
2018-10-11T19:08:50.807Z,1.47
2018-10-11T19:11:17.611Z,1.07
2018-10-11T19:13:44.308Z,1.43
2018-10-11T19:16:11.332Z,1.40
2018-10-11T19:18:38.256Z,0.97
2018-10-11T19:21:05.059Z,1.30
2018-10-11T19:23:31.881Z,1.40
2018-10-11T19:25:58.691Z,1.47
2018-10-11T19:28:25.401Z,1.60
2018-10-11T19:30:52.618Z,1.27
2018-10-11T19:33:19.517Z,1.10
2018-10-11T19:35:46.363Z,1.33
2018-10-11T19:38:13.146Z,1.30
2018-10-11T19:40:39.887Z,1.27
2018-10-11T19:43:06.665Z,1.03
2018-10-11T19:45:33.391Z,1.43
2018-10-11T19:48:00.141Z,1.30
2018-10-11T19:50:27.067Z,1.33
2018-10-11T19:52:53.908Z,1.60
2018-10-11T19:55:20.676Z,1.20
2018-10-11T19:57:47.438Z,1.27
2018-10-11T20:00:14.363Z,1.50
2018-10-11T20:02:41.452Z,1.60
2018-10-11T20:05:08.491Z,1.73
2018-10-11T20:07:41.159Z,1.47
2018-10-11T20:10:08.215Z,1.33
2018-10-11T20:12:35.045Z,1.67
2018-10-11T20:15:02.289Z,1.73
2018-10-11T20:17:29.334Z,1.60
2018-10-11T20:19:56.066Z,1.70
2018-10-11T20:22:23.389Z,1.30
2018-10-11T20:24:50.601Z,1.70
2018-10-11T20:27:17.392Z,1.53
2018-10-11T20:29:44.144Z,1.20
2018-10-11T20:32:10.978Z,1.33
2018-10-11T20:34:37.923Z,1.47
2018-10-11T20:37:04.706Z,1.70
2018-10-11T20:39:31.546Z,1.47
2018-10-11T20:41:58.371Z,1.60
2018-10-11T20:44:25.607Z,1.40
2018-10-11T20:46:53.122Z,1.90
2018-10-11T20:49:20.228Z,1.67
2018-10-11T20:51:47.104Z,1.83
2018-10-11T20:54:14.013Z,1.40
2018-10-11T20:56:40.765Z,1.70
2018-10-11T20:59:07.832Z,1.50
2018-10-11T21:01:34.807Z,1.50
2018-10-11T21:04:01.671Z,1.50
2018-10-11T21:06:28.628Z,1.70
2018-10-11T21:08:55.469Z,1.50
2018-10-11T21:11:22.189Z,1.53
2018-10-11T21:13:49.982Z,1.30
2018-10-11T21:16:16.925Z,1.50
2018-10-11T21:18:43.825Z,1.37
2018-10-11T21:21:10.679Z,1.10
2018-10-11T21:23:37.525Z,1.40
2018-10-11T21:26:04.307Z,1.13
2018-10-11T21:28:31.116Z,1.10
2018-10-11T21:30:57.909Z,1.37
2018-10-11T21:33:25.560Z,1.47
2018-10-11T21:35:52.323Z,1.33
2018-10-11T21:38:20.101Z,1.20
2018-10-11T21:40:46.981Z,1.30
2018-10-11T21:43:13.770Z,1.57
2018-10-11T21:45:40.584Z,1.50
2018-10-11T21:48:07.577Z,1.10
2018-10-11T21:50:34.976Z,1.40
2018-10-11T21:53:01.848Z,1.30
2018-10-11T21:55:28.694Z,1.07
2018-10-11T21:57:55.428Z,1.30
2018-10-11T22:00:26.967Z,1.30
2018-10-11T22:02:54.206Z,1.27
2018-10-11T22:05:21.357Z,1.20
2018-10-11T22:07:48.102Z,1.20
2018-10-11T22:10:15.074Z,1.17
2018-10-11T22:12:41.942Z,1.20
2018-10-11T22:15:08.878Z,0.97
2018-10-11T22:17:35.514Z,1.37
2018-10-11T22:20:02.319Z,1.27
2018-10-11T22:22:29.792Z,1.20
2018-10-11T22:24:57.008Z,1.40
2018-10-11T22:27:23.893Z,1.00
2018-10-11T22:29:51.106Z,1.00
2018-10-11T22:32:19.367Z,1.33
2018-10-11T22:34:46.619Z,1.13
2018-10-11T22:37:13.562Z,1.20
2018-10-11T22:39:41.084Z,1.20
2018-10-11T22:42:07.876Z,1.00
2018-10-11T22:44:34.632Z,0.97
2018-10-11T22:47:06.321Z,1.20
2018-10-11T22:49:33.116Z,0.97
2018-10-11T22:51:59.884Z,0.90
2018-10-11T22:54:30.513Z,1.30
2018-10-11T22:56:57.681Z,1.20
2018-10-11T22:59:24.508Z,1.10
2018-10-11T23:01:51.331Z,1.20
2018-10-11T23:04:18.222Z,1.20
2018-10-11T23:06:44.991Z,1.17
2018-10-11T23:09:14.325Z,1.13
2018-10-11T23:11:41.102Z,1.27
2018-10-11T23:14:07.861Z,0.97
2018-10-11T23:16:34.710Z,1.23
2018-10-11T23:19:01.512Z,1.30
2018-10-11T23:21:28.697Z,1.40
2018-10-11T23:23:55.442Z,0.90
2018-10-11T23:26:22.295Z,1.30
2018-10-11T23:28:49.179Z,0.93
2018-10-11T23:31:15.932Z,0.93
2018-10-11T23:33:42.745Z,1.00
2018-10-11T23:36:09.505Z,1.10
2018-10-11T23:38:36.194Z,1.00
2018-10-11T23:41:02.919Z,1.00
2018-10-11T23:43:29.588Z,1.00
2018-10-11T23:45:56.571Z,1.10
2018-10-11T23:48:23.536Z,1.00
2018-10-11T23:50:50.350Z,1.17
2018-10-11T23:53:17.114Z,0.90
2018-10-11T23:55:43.860Z,1.10
2018-10-11T23:58:10.704Z,1.07
